createdAt,value
2018-08-03T00:00:53.234Z,20.07
2018-08-03T00:03:21.405Z,20.57
2018-08-03T00:05:49.585Z,18.57
2018-08-03T00:08:17.749Z,18.60
2018-08-03T00:10:45.928Z,18.50
2018-08-03T00:13:14.096Z,18.40
2018-08-03T00:15:42.301Z,20.80
2018-08-03T00:18:10.470Z,19.15
2018-08-03T00:20:38.664Z,20.77
2018-08-03T00:23:06.830Z,18.37
2018-08-03T00:25:35.016Z,21.05
2018-08-03T00:28:03.184Z,20.52
2018-08-03T00:30:31.357Z,20.47
2018-08-03T00:32:59.526Z,20.97
2018-08-03T00:35:27.709Z,18.45
2018-08-03T00:37:55.885Z,18.95
2018-08-03T00:40:24.049Z,20.00
2018-08-03T00:42:52.266Z,19.37
2018-08-03T00:45:20.465Z,21.30
2018-08-03T00:47:48.669Z,21.45
2018-08-03T00:50:16.841Z,21.57
2018-08-03T00:52:45.015Z,22.95
2018-08-03T00:55:13.341Z,20.82
2018-08-03T00:57:41.549Z,19.82
2018-08-03T01:00:09.713Z,19.70
2018-08-03T01:02:37.857Z,18.32
2018-08-03T01:05:06.014Z,19.77
2018-08-03T01:07:34.181Z,18.82
2018-08-03T01:10:02.334Z,21.17
2018-08-03T01:12:30.500Z,20.68
2018-08-03T01:14:58.651Z,18.50
2018-08-03T01:17:26.817Z,19.10
2018-08-03T01:19:54.952Z,22.17
2018-08-03T01:22:23.104Z,21.97
2018-08-03T01:24:51.255Z,22.40
2018-08-03T01:27:19.404Z,22.80
2018-08-03T01:29:47.537Z,22.25
2018-08-03T01:32:15.676Z,19.90
2018-08-03T01:34:43.801Z,21.95
2018-08-03T01:37:11.966Z,20.15
2018-08-03T01:39:40.111Z,20.80
2018-08-03T01:42:08.273Z,21.00
2018-08-03T01:44:36.425Z,20.70
2018-08-03T01:47:04.593Z,20.10
2018-08-03T01:49:32.742Z,18.17
2018-08-03T01:52:00.913Z,17.57
2018-08-03T01:54:29.050Z,18.67
2018-08-03T01:56:57.205Z,19.10
2018-08-03T01:59:25.369Z,19.27
2018-08-03T02:01:53.494Z,20.50
2018-08-03T02:04:21.659Z,18.92
2018-08-03T02:06:49.814Z,19.57
2018-08-03T02:09:17.966Z,20.23
2018-08-03T02:11:46.106Z,20.25
2018-08-03T02:14:14.281Z,20.55
2018-08-03T02:16:42.434Z,19.90
2018-08-03T02:19:10.598Z,21.13
2018-08-03T02:21:38.739Z,21.05
2018-08-03T02:24:06.902Z,20.82
2018-08-03T02:26:35.046Z,19.85
2018-08-03T02:29:03.206Z,19.40
2018-08-03T02:31:31.386Z,20.77
2018-08-03T02:33:59.622Z,17.55
2018-08-03T02:36:27.811Z,16.87
2018-08-03T02:38:56.007Z,17.32
2018-08-03T02:41:24.212Z,19.10
2018-08-03T02:43:52.965Z,20.67
2018-08-03T02:46:21.156Z,19.70
2018-08-03T02:48:49.406Z,17.70
2018-08-03T02:51:17.590Z,18.93
2018-08-03T02:53:45.793Z,18.07
2018-08-03T02:56:13.973Z,18.98
2018-08-03T02:58:42.153Z,19.67
2018-08-03T03:01:10.642Z,19.98
2018-08-03T03:03:38.825Z,20.00
2018-08-03T03:06:07.094Z,20.33
2018-08-03T03:08:35.295Z,20.32
2018-08-03T03:11:03.472Z,18.45
2018-08-03T03:13:31.686Z,17.05
2018-08-03T03:15:59.842Z,18.32
2018-08-03T03:18:28.012Z,18.40
2018-08-03T03:20:56.205Z,18.42
2018-08-03T03:23:24.418Z,17.15
2018-08-03T03:25:52.581Z,17.98
2018-08-03T03:28:20.733Z,16.57
2018-08-03T03:30:48.897Z,17.60
2018-08-03T03:33:17.075Z,18.10
2018-08-03T03:35:45.266Z,18.48
2018-08-03T03:38:13.414Z,18.40
2018-08-03T03:40:41.594Z,17.67
2018-08-03T03:43:09.759Z,15.90
2018-08-03T03:45:37.978Z,17.37
2018-08-03T03:48:06.109Z,17.52
2018-08-03T03:50:34.283Z,19.60
2018-08-03T03:53:02.482Z,19.70
2018-08-03T03:55:30.406Z,19.92
2018-08-03T03:57:58.565Z,19.20
2018-08-03T04:00:26.742Z,18.87
2018-08-03T04:02:54.925Z,19.05
2018-08-03T04:05:23.089Z,18.20
2018-08-03T04:07:51.256Z,17.37
2018-08-03T04:10:19.426Z,16.73
2018-08-03T04:12:47.614Z,17.82
2018-08-03T04:15:15.826Z,17.20
2018-08-03T04:17:43.993Z,18.32
2018-08-03T04:20:12.195Z,18.20
2018-08-03T04:22:40.374Z,18.87
2018-08-03T04:25:08.574Z,20.10
2018-08-03T04:27:36.753Z,17.73
2018-08-03T04:30:05.718Z,17.98
2018-08-03T04:32:33.938Z,16.50
2018-08-03T04:35:02.144Z,18.40
2018-08-03T04:37:30.340Z,20.00
2018-08-03T04:39:58.517Z,19.05
2018-08-03T04:42:26.733Z,21.40
2018-08-03T04:44:54.913Z,21.70
2018-08-03T04:47:23.119Z,24.40
2018-08-03T04:49:51.293Z,22.62
2018-08-03T04:52:19.507Z,21.30
2018-08-03T04:54:47.711Z,23.52
2018-08-03T04:57:15.890Z,25.55
2018-08-03T04:59:44.076Z,23.90
2018-08-03T05:02:12.622Z,23.32
2018-08-03T05:04:40.855Z,21.30
2018-08-03T05:07:09.244Z,20.92
2018-08-03T05:09:37.424Z,22.07
2018-08-03T05:12:05.601Z,21.25
2018-08-03T05:14:33.805Z,22.75
2018-08-03T05:17:02.026Z,22.65
2018-08-03T05:19:30.207Z,21.15
2018-08-03T05:21:58.942Z,21.07
2018-08-03T05:24:27.125Z,20.60
2018-08-03T05:26:55.321Z,21.60
2018-08-03T05:29:23.510Z,22.62
2018-08-03T05:31:51.727Z,23.73
2018-08-03T05:34:19.935Z,22.70
2018-08-03T05:36:48.102Z,23.22
2018-08-03T05:39:16.290Z,25.67
2018-08-03T05:41:44.510Z,27.95
2018-08-03T05:44:12.706Z,25.27
2018-08-03T05:46:40.904Z,27.75
2018-08-03T05:49:08.850Z,26.40
2018-08-03T05:51:37.053Z,23.57
2018-08-03T05:54:05.257Z,23.32
2018-08-03T05:56:33.435Z,27.05
2018-08-03T05:59:01.617Z,26.30
2018-08-03T06:01:29.802Z,26.30
2018-08-03T06:03:58.069Z,28.80
2018-08-03T06:06:26.214Z,28.30
2018-08-03T06:08:54.393Z,30.20
2018-08-03T06:11:22.579Z,29.57
2018-08-03T06:13:50.761Z,28.25
2018-08-03T06:16:18.938Z,29.12
2018-08-03T06:18:47.086Z,27.70
2018-08-03T06:21:15.253Z,28.05
2018-08-03T06:23:43.422Z,29.02
2018-08-03T06:26:11.578Z,32.23
2018-08-03T06:28:39.782Z,30.50
2018-08-03T06:31:07.946Z,32.25
2018-08-03T06:33:36.147Z,31.30
2018-08-03T06:36:04.305Z,33.05
2018-08-03T06:38:32.479Z,32.10
2018-08-03T06:41:00.670Z,31.82
2018-08-03T06:43:28.845Z,30.65
2018-08-03T06:45:57.034Z,31.70
2018-08-03T06:48:25.212Z,29.45
2018-08-03T06:50:53.405Z,30.17
2018-08-03T06:53:21.570Z,29.98
2018-08-03T06:55:49.743Z,29.33
2018-08-03T06:58:17.921Z,29.00
2018-08-03T07:00:46.094Z,29.35
2018-08-03T07:03:14.318Z,28.38
2018-08-03T07:05:42.540Z,29.80
2018-08-03T07:08:10.945Z,28.15
2018-08-03T07:10:39.121Z,29.77
2018-08-03T07:13:07.289Z,28.60
2018-08-03T07:15:35.470Z,29.70
2018-08-03T07:18:03.670Z,27.98
2018-08-03T07:20:31.908Z,27.50
2018-08-03T07:23:00.088Z,28.45
2018-08-03T07:25:27.997Z,28.97
2018-08-03T07:27:56.178Z,28.35
2018-08-03T07:30:24.342Z,26.65
2018-08-03T07:32:52.518Z,29.18
2018-08-03T07:35:20.691Z,27.67
2018-08-03T07:37:48.890Z,26.55
2018-08-03T07:40:17.078Z,28.00
2018-08-03T07:42:45.263Z,27.50
2018-08-03T07:45:13.658Z,28.47
2018-08-03T07:47:42.059Z,26.93
2018-08-03T07:50:10.220Z,27.95
2018-08-03T07:52:38.470Z,27.07
2018-08-03T07:55:06.570Z,28.30
2018-08-03T07:57:34.734Z,26.25
2018-08-03T08:00:02.938Z,26.63
2018-08-03T08:02:31.126Z,26.80
2018-08-03T08:04:59.309Z,27.07
2018-08-03T08:07:27.497Z,27.20
2018-08-03T08:09:55.672Z,26.60
2018-08-03T08:12:23.846Z,27.37
2018-08-03T08:14:52.124Z,26.77
2018-08-03T08:17:20.309Z,26.00
2018-08-03T08:19:48.518Z,26.40
2018-08-03T08:22:16.698Z,25.92
2018-08-03T08:24:44.903Z,23.80
2018-08-03T08:27:13.114Z,25.12
2018-08-03T08:29:41.315Z,25.17
2018-08-03T08:32:09.510Z,25.90
2018-08-03T08:34:37.727Z,23.60
2018-08-03T08:37:06.069Z,24.80
2018-08-03T08:39:34.202Z,23.98
2018-08-03T08:42:02.377Z,24.45
2018-08-03T08:44:30.594Z,23.57
2018-08-03T08:46:58.773Z,22.05
2018-08-03T08:49:26.982Z,23.60
2018-08-03T08:51:55.188Z,23.62
2018-08-03T08:54:23.389Z,23.57
2018-08-03T08:56:51.585Z,22.03
2018-08-03T08:59:19.785Z,21.85
2018-08-03T09:01:47.961Z,22.52
2018-08-03T09:04:16.150Z,22.10
2018-08-03T09:06:44.393Z,22.30
2018-08-03T09:09:12.543Z,21.70
2018-08-03T09:11:40.721Z,20.57
2018-08-03T09:14:08.943Z,22.67
2018-08-03T09:16:37.113Z,21.37
2018-08-03T09:19:05.290Z,23.13
2018-08-03T09:21:33.455Z,21.55
2018-08-03T09:24:01.633Z,21.87
2018-08-03T09:26:29.802Z,21.90
2018-08-03T09:28:57.998Z,20.80
2018-08-03T09:31:26.150Z,22.13
2018-08-03T09:33:54.329Z,22.02
2018-08-03T09:36:22.525Z,20.20
2018-08-03T09:38:50.673Z,23.55
2018-08-03T09:41:18.820Z,21.93
2018-08-03T09:43:47.034Z,22.00
2018-08-03T09:46:15.185Z,21.37
2018-08-03T09:48:43.358Z,21.02
2018-08-03T09:51:11.570Z,22.25
2018-08-03T09:53:39.719Z,19.55
2018-08-03T09:56:07.904Z,20.25
2018-08-03T09:58:36.066Z,17.82
2018-08-03T10:01:10.186Z,18.87
2018-08-03T10:03:38.740Z,17.20
2018-08-03T10:06:06.997Z,16.45
2018-08-03T10:08:35.194Z,17.07
2018-08-03T10:11:03.370Z,15.85
2018-08-03T10:13:31.559Z,15.80
2018-08-03T10:15:59.798Z,14.70
2018-08-03T10:18:27.982Z,16.20
2018-08-03T10:20:56.150Z,15.20
2018-08-03T10:23:24.411Z,14.23
2018-08-03T10:25:52.666Z,15.35
2018-08-03T10:28:20.826Z,14.90
2018-08-03T10:30:49.234Z,14.60
2018-08-03T10:33:17.401Z,14.05
2018-08-03T10:35:45.574Z,13.32
2018-08-03T10:38:13.995Z,13.10
2018-08-03T10:40:42.215Z,12.90
2018-08-03T10:43:10.401Z,12.63
2018-08-03T10:45:38.970Z,13.10
2018-08-03T10:48:07.355Z,13.20
2018-08-03T10:50:35.516Z,12.55
2018-08-03T10:53:03.714Z,12.10
2018-08-03T10:55:31.890Z,12.40
2018-08-03T10:58:00.068Z,12.75
2018-08-03T11:00:29.722Z,13.35
2018-08-03T11:02:58.314Z,12.60
2018-08-03T11:05:26.798Z,13.10
2018-08-03T11:07:54.980Z,12.25
2018-08-03T11:10:23.159Z,12.18
2018-08-03T11:12:51.890Z,12.60
2018-08-03T11:15:20.113Z,12.00
2018-08-03T11:17:49.285Z,12.50
2018-08-03T11:20:17.814Z,12.60
2018-08-03T11:22:46.382Z,12.55
2018-08-03T11:25:14.606Z,11.48
2018-08-03T11:27:42.870Z,11.60
2018-08-03T11:30:11.361Z,12.20
2018-08-03T11:32:39.611Z,12.18
2018-08-03T11:35:08.902Z,11.05
2018-08-03T11:37:37.038Z,11.40
2018-08-03T11:40:05.716Z,11.38
2018-08-03T11:42:33.967Z,11.50
2018-08-03T11:45:02.142Z,12.68
2018-08-03T11:47:30.326Z,11.47
2018-08-03T11:49:58.550Z,10.95
2018-08-03T11:52:26.731Z,11.88
2018-08-03T11:54:54.941Z,11.22
2018-08-03T11:57:23.113Z,10.85
2018-08-03T11:59:51.281Z,11.23
2018-08-03T12:02:19.493Z,11.65
2018-08-03T12:04:47.661Z,10.75
2018-08-03T12:07:15.809Z,9.90
2018-08-03T12:09:43.978Z,10.58
2018-08-03T12:12:12.159Z,11.20
2018-08-03T12:14:40.378Z,11.15
2018-08-03T12:17:08.588Z,11.50
2018-08-03T12:19:36.780Z,11.47
2018-08-03T12:22:05.017Z,10.45
2018-08-03T12:24:33.298Z,9.98
2018-08-03T12:27:01.709Z,10.60
2018-08-03T12:29:29.894Z,8.65
2018-08-03T12:31:58.106Z,8.98
2018-08-03T12:34:26.278Z,8.57
2018-08-03T12:36:54.478Z,10.80
2018-08-03T12:39:22.647Z,10.45
2018-08-03T12:41:50.827Z,10.30
2018-08-03T12:44:19.023Z,10.05
2018-08-03T12:46:47.218Z,10.00
2018-08-03T12:49:15.413Z,9.48
2018-08-03T12:51:43.607Z,9.97
2018-08-03T12:54:11.834Z,9.48
2018-08-03T12:56:40.067Z,9.10
2018-08-03T12:59:08.194Z,9.05
2018-08-03T13:01:36.381Z,8.50
2018-08-03T13:04:04.565Z,9.00
2018-08-03T13:06:32.784Z,8.20
2018-08-03T13:09:00.947Z,8.65
2018-08-03T13:11:29.122Z,8.88
2018-08-03T13:13:57.317Z,8.63
2018-08-03T13:16:25.482Z,9.03
2018-08-03T13:18:53.694Z,9.18
2018-08-03T13:21:33.272Z,8.83
2018-08-03T13:24:02.151Z,9.00
2018-08-03T13:26:30.322Z,9.00
2018-08-03T13:28:58.930Z,8.85
2018-08-03T13:31:28.034Z,8.18
2018-08-03T13:33:56.242Z,9.73
2018-08-03T13:36:25.528Z,8.40
2018-08-03T13:38:53.652Z,8.73
2018-08-03T13:41:21.794Z,8.90
2018-08-03T13:43:49.978Z,9.03
2018-08-03T13:46:18.273Z,8.67
2018-08-03T13:48:47.494Z,8.73
2018-08-03T13:51:16.494Z,8.30
2018-08-03T13:53:45.535Z,8.25
2018-08-03T13:56:14.411Z,8.60
2018-08-03T13:58:43.991Z,8.88
2018-08-03T14:01:23.655Z,8.03
2018-08-03T14:03:52.199Z,9.10
2018-08-03T14:06:20.434Z,9.25
2018-08-03T14:08:49.286Z,8.95
2018-08-03T14:11:18.162Z,9.00
2018-08-03T14:13:46.788Z,8.50
2018-08-03T14:16:15.054Z,8.30
2018-08-03T14:18:43.878Z,8.83
2018-08-03T14:21:11.793Z,8.65
2018-08-03T14:23:39.999Z,8.88
2018-08-03T14:26:08.154Z,9.00
2018-08-03T14:28:36.347Z,9.30
2018-08-03T14:31:04.526Z,9.60
2018-08-03T14:33:32.726Z,8.60
2018-08-03T14:36:00.887Z,9.25
2018-08-03T14:38:29.046Z,9.20
2018-08-03T14:40:57.220Z,9.60
2018-08-03T14:43:25.397Z,9.60
2018-08-03T14:45:53.601Z,8.95
2018-08-03T14:48:21.766Z,9.50
2018-08-03T14:50:49.962Z,9.15
2018-08-03T14:53:18.145Z,9.18
2018-08-03T14:55:46.301Z,9.58
2018-08-03T14:58:14.477Z,9.50
2018-08-03T15:00:42.747Z,9.23
2018-08-03T15:03:10.929Z,9.00
2018-08-03T15:05:39.077Z,9.53
2018-08-03T15:08:07.255Z,9.43
2018-08-03T15:10:35.417Z,9.48
2018-08-03T15:13:03.601Z,9.63
2018-08-03T15:15:31.821Z,9.20
2018-08-03T15:18:00.004Z,9.80
2018-08-03T15:20:28.218Z,9.28
2018-08-03T15:22:56.393Z,9.50
2018-08-03T15:25:24.570Z,9.00
2018-08-03T15:27:52.773Z,9.98
2018-08-03T15:30:20.953Z,9.63
2018-08-03T15:32:49.143Z,9.35
2018-08-03T15:35:17.400Z,9.30
2018-08-03T15:37:45.521Z,9.30
2018-08-03T15:40:13.469Z,9.48
2018-08-03T15:42:41.654Z,9.23
2018-08-03T15:45:09.898Z,9.13
2018-08-03T15:47:38.146Z,9.80
2018-08-03T15:50:06.526Z,9.50
2018-08-03T15:52:34.705Z,9.50
2018-08-03T15:55:02.926Z,9.43
2018-08-03T15:57:31.098Z,9.38
2018-08-03T15:59:59.318Z,8.90
2018-08-03T16:02:27.505Z,9.30
2018-08-03T16:04:55.707Z,9.85
2018-08-03T16:07:23.886Z,10.47
2018-08-03T16:09:52.106Z,9.13
2018-08-03T16:12:20.294Z,10.03
2018-08-03T16:14:48.469Z,9.70
2018-08-03T16:17:16.654Z,9.95
2018-08-03T16:19:44.858Z,10.60
2018-08-03T16:22:13.077Z,10.38
2018-08-03T16:24:41.266Z,10.70
2018-08-03T16:27:09.454Z,10.45
2018-08-03T16:29:37.670Z,10.98
2018-08-03T16:32:06.146Z,9.80
2018-08-03T16:34:34.341Z,10.10
2018-08-03T16:37:02.537Z,10.30
2018-08-03T16:39:30.745Z,10.48
2018-08-03T16:41:59.141Z,10.72
2018-08-03T16:44:27.346Z,9.60
2018-08-03T16:46:55.556Z,10.00
2018-08-03T16:49:23.738Z,10.67
2018-08-03T16:51:51.947Z,9.48
2018-08-03T16:54:20.141Z,9.55
2018-08-03T16:56:48.342Z,9.35
2018-08-03T16:59:16.541Z,10.05
2018-08-03T17:01:44.735Z,9.33
2018-08-03T17:04:12.933Z,9.70
2018-08-03T17:06:41.114Z,10.05
2018-08-03T17:09:10.006Z,9.33
2018-08-03T17:11:38.198Z,9.30
2018-08-03T17:14:06.378Z,9.30
2018-08-03T17:16:34.980Z,9.95
2018-08-03T17:19:03.158Z,9.70
2018-08-03T17:21:31.353Z,9.75
2018-08-03T17:24:06.375Z,9.60
2018-08-03T17:26:34.555Z,9.88
2018-08-03T17:29:02.758Z,10.20
2018-08-03T17:31:30.950Z,10.00
2018-08-03T17:33:59.152Z,10.20
2018-08-03T17:36:27.340Z,10.03
2018-08-03T17:38:55.579Z,10.38
2018-08-03T17:41:23.778Z,10.10
2018-08-03T17:43:51.978Z,11.15
2018-08-03T17:46:20.170Z,10.38
2018-08-03T17:48:48.357Z,10.58
2018-08-03T17:51:16.554Z,11.10
2018-08-03T17:53:44.749Z,10.15
2018-08-03T17:56:12.942Z,10.45
2018-08-03T17:58:41.131Z,10.50
2018-08-03T18:01:09.331Z,10.35
2018-08-03T18:03:37.489Z,10.20
2018-08-03T18:06:05.770Z,11.22
2018-08-03T18:08:33.946Z,10.98
2018-08-03T18:11:02.130Z,9.90
2018-08-03T18:13:30.322Z,10.58
2018-08-03T18:15:58.516Z,11.10
2018-08-03T18:18:26.656Z,11.10
2018-08-03T18:20:54.845Z,11.03
2018-08-03T18:23:23.008Z,11.97
2018-08-03T18:25:51.176Z,11.15
2018-08-03T18:28:19.345Z,11.60
2018-08-03T18:30:47.510Z,12.00
2018-08-03T18:33:15.686Z,12.18
2018-08-03T18:35:43.865Z,12.50
2018-08-03T18:38:12.033Z,11.75
2018-08-03T18:40:40.222Z,12.53
2018-08-03T18:43:08.391Z,12.30
2018-08-03T18:45:36.546Z,11.38
2018-08-03T18:48:05.003Z,12.63
2018-08-03T18:50:33.218Z,12.13
2018-08-03T18:53:01.393Z,12.03
2018-08-03T18:55:29.624Z,12.60
2018-08-03T18:57:57.799Z,13.35
2018-08-03T19:00:25.961Z,12.90
2018-08-03T19:02:54.165Z,12.98
2018-08-03T19:05:22.356Z,12.95
2018-08-03T19:07:50.529Z,13.80
2018-08-03T19:10:18.714Z,12.53
2018-08-03T19:12:46.914Z,13.00
2018-08-03T19:15:15.082Z,13.67
2018-08-03T19:17:43.274Z,13.38
2018-08-03T19:20:11.449Z,13.68
2018-08-03T19:22:39.634Z,13.63
2018-08-03T19:25:08.121Z,13.38
2018-08-03T19:27:36.322Z,13.32
2018-08-03T19:30:05.213Z,13.50
2018-08-03T19:32:33.333Z,13.90
2018-08-03T19:35:01.543Z,14.55
2018-08-03T19:37:29.737Z,14.55
2018-08-03T19:39:57.937Z,14.58
2018-08-03T19:42:26.141Z,13.88
2018-08-03T19:44:54.318Z,14.07
2018-08-03T19:47:22.514Z,14.33
2018-08-03T19:49:50.706Z,14.60
2018-08-03T19:52:18.931Z,14.47
2018-08-03T19:54:47.109Z,14.10
2018-08-03T19:57:15.286Z,13.68
2018-08-03T19:59:43.478Z,15.05
2018-08-03T20:02:11.686Z,14.80
2018-08-03T20:04:39.860Z,14.43
2018-08-03T20:07:08.063Z,14.30
2018-08-03T20:09:36.239Z,14.25
2018-08-03T20:12:04.428Z,15.58
2018-08-03T20:14:32.620Z,15.30
2018-08-03T20:17:00.837Z,14.98
2018-08-03T20:19:29.010Z,13.80
2018-08-03T20:21:57.571Z,14.63
2018-08-03T20:24:25.738Z,14.10
2018-08-03T20:26:53.900Z,14.90
2018-08-03T20:29:22.079Z,14.43
2018-08-03T20:31:50.246Z,14.98
2018-08-03T20:34:18.490Z,14.63
2018-08-03T20:36:46.655Z,15.70
2018-08-03T20:39:14.919Z,15.90
2018-08-03T20:41:43.029Z,15.38
2018-08-03T20:44:11.198Z,14.70
2018-08-03T20:46:39.353Z,14.93
2018-08-03T20:49:07.679Z,15.03
2018-08-03T20:51:35.845Z,14.73
2018-08-03T20:54:04.027Z,15.40
2018-08-03T20:56:32.195Z,14.83
2018-08-03T20:59:00.370Z,14.38
2018-08-03T21:01:28.538Z,15.30
2018-08-03T21:03:56.703Z,15.05
2018-08-03T21:06:24.873Z,15.20
2018-08-03T21:08:53.043Z,14.33
2018-08-03T21:11:21.210Z,14.68
2018-08-03T21:13:49.405Z,15.40
2018-08-03T21:16:17.590Z,15.20
2018-08-03T21:18:45.814Z,15.08
2018-08-03T21:21:14.026Z,15.40
2018-08-03T21:23:42.314Z,14.95
2018-08-03T21:26:10.486Z,14.70
2018-08-03T21:28:38.666Z,15.05
2018-08-03T21:31:06.863Z,15.45
2018-08-03T21:33:35.054Z,15.30
2018-08-03T21:36:03.242Z,14.53
2018-08-03T21:38:31.442Z,14.85
2018-08-03T21:40:59.613Z,14.45
2018-08-03T21:43:27.818Z,13.47
2018-08-03T21:45:55.986Z,15.25
2018-08-03T21:48:24.186Z,14.55
2018-08-03T21:50:52.454Z,15.13
2018-08-03T21:53:20.667Z,15.60
2018-08-03T21:55:48.854Z,14.65
2018-08-03T21:58:17.063Z,15.13
2018-08-03T22:00:45.237Z,16.03
2018-08-03T22:03:13.449Z,15.32
2018-08-03T22:05:41.641Z,15.70
2018-08-03T22:08:09.830Z,15.25
2018-08-03T22:10:38.018Z,16.50
2018-08-03T22:13:06.209Z,15.90
2018-08-03T22:15:34.397Z,15.23
2018-08-03T22:18:02.559Z,14.70
2018-08-03T22:20:30.746Z,16.17
2018-08-03T22:22:58.937Z,15.50
2018-08-03T22:25:27.101Z,14.80
2018-08-03T22:27:55.249Z,15.00
2018-08-03T22:30:23.464Z,15.72
2018-08-03T22:32:51.631Z,15.25
2018-08-03T22:35:19.782Z,15.55
2018-08-03T22:37:47.966Z,15.10
2018-08-03T22:40:16.133Z,15.20
2018-08-03T22:42:44.322Z,14.73
2018-08-03T22:45:13.330Z,15.48
2018-08-03T22:47:41.473Z,15.70
2018-08-03T22:50:09.638Z,15.70
2018-08-03T22:52:37.817Z,16.15
2018-08-03T22:55:05.977Z,16.48
2018-08-03T22:57:34.134Z,16.07
2018-08-03T23:00:02.649Z,16.35
2018-08-03T23:02:30.833Z,16.00
2018-08-03T23:04:59.017Z,16.12
2018-08-03T23:07:27.173Z,15.88
2018-08-03T23:09:55.433Z,15.50
2018-08-03T23:12:23.610Z,16.05
2018-08-03T23:14:51.766Z,16.12
2018-08-03T23:17:19.952Z,15.93
2018-08-03T23:19:48.119Z,15.63
2018-08-03T23:22:16.290Z,16.48
2018-08-03T23:24:44.455Z,16.23
2018-08-03T23:27:12.642Z,16.60
2018-08-03T23:29:40.830Z,15.00
2018-08-03T23:32:08.982Z,15.43
2018-08-03T23:34:43.607Z,16.10
2018-08-03T23:37:11.766Z,16.57
2018-08-03T23:39:39.921Z,15.70
2018-08-03T23:42:08.105Z,17.00
2018-08-03T23:44:36.277Z,16.62
2018-08-03T23:47:04.579Z,15.53
2018-08-03T23:49:32.757Z,16.20
2018-08-03T23:52:00.929Z,17.02
2018-08-03T23:54:29.110Z,15.08
2018-08-03T23:56:57.264Z,16.23
2018-08-03T23:59:25.429Z,15.85
